createdAt,value
2023-03-05T00:01:42.541Z,64.60
2023-03-05T00:04:45.725Z,65.60
2023-03-05T00:07:49.017Z,66.00
2023-03-05T00:10:57.808Z,66.30
2023-03-05T00:14:04.700Z,67.00
2023-03-05T00:17:08.103Z,67.60
2023-03-05T00:20:12.261Z,67.70
2023-03-05T00:23:15.831Z,68.10
2023-03-05T00:26:19.072Z,68.30
2023-03-05T00:29:23.715Z,68.30
2023-03-05T00:32:26.957Z,68.50
2023-03-05T00:35:30.199Z,68.60
2023-03-05T00:38:33.407Z,69.20
2023-03-05T00:41:36.625Z,69.70
2023-03-05T00:44:41.164Z,69.50
2023-03-05T00:47:44.354Z,69.70
2023-03-05T00:50:47.870Z,70.10
2023-03-05T00:53:51.201Z,70.30
2023-03-05T00:56:54.352Z,70.30
2023-03-05T00:59:58.890Z,70.70
2023-03-05T01:03:02.080Z,71.00
2023-03-05T01:06:07.657Z,71.40
2023-03-05T01:09:10.876Z,71.30
2023-03-05T01:12:14.040Z,71.30
2023-03-05T01:15:18.750Z,72.00
2023-03-05T01:18:22.030Z,72.50
2023-03-05T01:21:25.260Z,72.70
2023-03-05T01:24:28.473Z,73.00
2023-03-05T01:27:31.660Z,73.50
2023-03-05T01:30:36.237Z,74.00
2023-03-05T01:33:40.099Z,74.00
2023-03-05T01:36:43.822Z,74.10
2023-03-05T01:39:47.060Z,74.30
2023-03-05T01:42:56.698Z,74.50
2023-03-05T01:46:34.797Z,74.70
2023-03-05T01:49:41.325Z,74.90
2023-03-05T01:52:49.225Z,74.90
2023-03-05T01:55:53.627Z,75.30
2023-03-05T01:59:03.605Z,75.80
2023-03-05T02:02:08.241Z,76.10
2023-03-05T02:05:14.879Z,76.20
2023-03-05T02:08:20.528Z,76.70
2023-03-05T02:11:23.773Z,77.00
2023-03-05T02:14:28.096Z,77.20
2023-03-05T02:17:32.126Z,77.70
2023-03-05T02:20:47.205Z,78.20
2023-03-05T02:23:51.785Z,78.50
2023-03-05T02:26:55.363Z,78.80
2023-03-05T02:29:58.534Z,79.10
2023-03-05T02:33:01.708Z,79.20
2023-03-05T02:36:05.340Z,79.80
2023-03-05T02:39:10.801Z,79.90
2023-03-05T02:42:14.079Z,80.00
2023-03-05T02:45:17.632Z,80.20
2023-03-05T02:48:20.757Z,80.50
2023-03-05T02:51:24.011Z,81.00
2023-03-05T02:54:29.760Z,81.50
2023-03-05T02:57:32.911Z,81.80
2023-03-05T03:00:36.184Z,82.10
2023-03-05T03:03:39.562Z,82.30
2023-03-05T03:06:42.754Z,82.50
2023-03-05T03:09:47.272Z,82.60
2023-03-05T03:12:50.513Z,83.30
2023-03-05T03:16:03.390Z,83.70
2023-03-05T03:19:06.671Z,84.10
2023-03-05T03:22:10.939Z,84.10
2023-03-05T03:25:18.359Z,84.50
2023-03-05T03:28:21.496Z,84.60
2023-03-05T03:31:24.740Z,84.90
2023-03-05T03:34:28.534Z,85.20
2023-03-05T03:37:32.386Z,85.50
2023-03-05T03:40:37.489Z,85.70
2023-03-05T03:43:40.720Z,86.30
2023-03-05T03:46:45.860Z,86.90
2023-03-05T03:49:49.045Z,87.10
2023-03-05T03:52:52.266Z,87.90
2023-03-05T03:56:01.101Z,88.30
2023-03-05T03:59:04.444Z,88.50
2023-03-05T04:02:07.714Z,88.90
2023-03-05T04:05:11.355Z,89.30
2023-03-05T04:08:14.511Z,89.80
2023-03-05T04:11:19.864Z,89.80
2023-03-05T04:14:23.110Z,89.70
2023-03-05T04:17:26.390Z,89.70
2023-03-05T04:20:29.711Z,89.70
2023-03-05T04:23:32.883Z,90.20
2023-03-05T04:26:37.518Z,90.00
2023-03-05T04:29:40.680Z,90.00
2023-03-05T04:32:44.113Z,90.20
2023-03-05T04:35:47.424Z,90.40
2023-03-05T04:38:50.577Z,90.50
2023-03-05T04:41:55.142Z,90.70
2023-03-05T04:44:58.333Z,90.90
2023-03-05T04:48:01.726Z,90.90
2023-03-05T04:51:05.136Z,90.90
2023-03-05T04:54:08.320Z,91.00
2023-03-05T04:57:12.912Z,91.30
2023-03-05T05:00:18.304Z,91.50
2023-03-05T05:03:21.484Z,91.60
2023-03-05T05:06:24.683Z,91.70
2023-03-05T05:09:28.350Z,91.80
2023-03-05T05:12:33.180Z,91.90
2023-03-05T05:15:36.350Z,92.30
2023-03-05T05:18:39.695Z,92.50
2023-03-05T05:21:42.912Z,92.40
2023-03-05T05:24:46.125Z,92.30
2023-03-05T05:27:50.697Z,92.50
2023-03-05T05:30:54.174Z,92.80
2023-03-05T05:33:57.375Z,93.40
2023-03-05T05:37:00.566Z,93.20
2023-03-05T05:40:05.278Z,93.50
2023-03-05T05:43:09.826Z,93.50
2023-03-05T05:46:15.631Z,93.80
2023-03-05T05:49:18.855Z,93.90
2023-03-05T05:52:22.095Z,93.70
2023-03-05T05:55:25.255Z,93.60
2023-03-05T05:58:29.769Z,93.70
2023-03-05T06:01:34.852Z,93.70
2023-03-05T06:04:38.714Z,93.70
2023-03-05T06:07:41.953Z,93.80
2023-03-05T06:10:45.143Z,93.70
2023-03-05T06:13:50.275Z,93.60
2023-03-05T06:16:53.847Z,93.60
2023-03-05T06:19:57.213Z,93.60
2023-03-05T06:23:00.373Z,93.50
2023-03-05T06:26:05.936Z,93.40
2023-03-05T06:29:10.442Z,93.10
2023-03-05T06:32:13.669Z,92.80
2023-03-05T06:35:16.898Z,92.70
2023-03-05T06:38:20.107Z,92.60
2023-03-05T06:41:25.551Z,92.50
2023-03-05T06:44:30.336Z,92.50
2023-03-05T06:47:33.549Z,92.70
2023-03-05T06:50:37.064Z,92.80
2023-03-05T06:53:40.350Z,92.80
2023-03-05T06:56:45.502Z,92.70
2023-03-05T06:59:50.467Z,92.40
2023-03-05T07:02:53.761Z,92.50
2023-03-05T07:05:56.969Z,92.00
2023-03-05T07:09:01.920Z,91.70
2023-03-05T07:12:05.465Z,91.50
2023-03-05T07:15:11.181Z,91.40
2023-03-05T07:18:14.374Z,91.30
2023-03-05T07:21:20.489Z,91.00
2023-03-05T07:24:24.800Z,90.90
2023-03-05T07:27:28.025Z,90.80
2023-03-05T07:30:32.616Z,90.70
2023-03-05T07:33:37.264Z,90.20
2023-03-05T07:36:40.675Z,89.60
2023-03-05T07:39:46.330Z,88.90
2023-03-05T07:42:50.390Z,88.10
2023-03-05T07:45:55.015Z,87.70
2023-03-05T07:48:58.483Z,87.20
2023-03-05T07:52:01.668Z,86.70
2023-03-05T07:55:05.172Z,85.60
2023-03-05T07:58:08.354Z,84.70
2023-03-05T08:01:15.992Z,83.60
2023-03-05T08:04:19.254Z,82.70
2023-03-05T08:07:22.477Z,74.40
2023-03-05T08:10:25.783Z,67.90
2023-03-05T08:13:29.087Z,67.50
2023-03-05T08:16:33.657Z,69.30
2023-03-05T08:19:36.828Z,69.80
2023-03-05T08:22:40.094Z,70.80
2023-03-05T08:25:43.288Z,68.80
2023-03-05T08:28:46.591Z,67.50
2023-03-05T08:31:51.643Z,66.80
2023-03-05T08:34:58.490Z,65.60
2023-03-05T08:38:01.713Z,67.50
2023-03-05T08:41:05.404Z,62.20
2023-03-05T08:44:08.897Z,52.60
2023-03-05T08:47:13.496Z,44.50
2023-03-05T08:50:17.982Z,37.60
2023-03-05T08:53:21.241Z,32.60
2023-03-05T08:56:26.595Z,30.70
2023-03-05T08:59:29.984Z,29.50
2023-03-05T09:02:35.448Z,27.90
2023-03-05T09:05:39.204Z,26.30
2023-03-05T09:08:42.530Z,25.20
2023-03-05T09:11:45.786Z,24.70
2023-03-05T09:14:48.961Z,23.60
2023-03-05T09:17:53.564Z,22.10
2023-03-05T09:20:57.089Z,20.90
2023-03-05T09:24:00.667Z,21.60
2023-03-05T09:27:03.894Z,21.70
2023-03-05T09:30:08.392Z,21.50
2023-03-05T09:33:13.103Z,21.10
2023-03-05T09:36:21.036Z,20.70
2023-03-05T09:39:24.191Z,21.40
2023-03-05T09:42:39.868Z,21.40
2023-03-05T09:45:56.332Z,20.50
2023-03-05T09:49:09.568Z,20.50
2023-03-05T09:52:17.938Z,21.50
2023-03-05T09:55:27.286Z,21.30
2023-03-05T09:58:37.005Z,21.40
2023-03-05T10:01:43.873Z,22.80
2023-03-05T10:04:53.617Z,22.10
2023-03-05T10:08:02.252Z,20.50
2023-03-05T10:11:13.469Z,19.50
2023-03-05T10:14:23.634Z,19.60
2023-03-05T10:17:55.397Z,20.20
2023-03-05T10:21:06.583Z,20.90
2023-03-05T10:24:17.402Z,19.90
2023-03-05T10:27:23.359Z,19.90
2023-03-05T10:30:54.900Z,19.20
2023-03-05T10:34:11.589Z,19.70
2023-03-05T10:37:51.072Z,19.20
2023-03-05T10:40:56.890Z,19.60
2023-03-05T10:44:06.263Z,19.20
2023-03-05T10:47:18.294Z,18.90
2023-03-05T10:50:24.731Z,20.90
2023-03-05T10:53:33.526Z,20.50
2023-03-05T10:56:36.801Z,20.30
2023-03-05T10:59:42.702Z,19.70
2023-03-05T11:02:58.806Z,18.70
2023-03-05T11:06:05.085Z,19.80
2023-03-05T11:09:26.983Z,18.90
2023-03-05T11:12:32.377Z,17.70
2023-03-05T11:15:35.659Z,16.60
2023-03-05T11:18:39.522Z,17.60
2023-03-05T11:21:43.714Z,18.20
2023-03-05T11:25:06.302Z,18.50
2023-03-05T11:28:32.019Z,17.90
2023-03-05T11:31:36.680Z,18.60
2023-03-05T11:34:40.290Z,18.90
2023-03-05T11:37:44.812Z,19.30
2023-03-05T11:40:50.654Z,19.10
2023-03-05T11:43:55.640Z,18.50
2023-03-05T11:47:01.678Z,20.50
2023-03-05T11:50:18.235Z,20.90
2023-03-05T11:53:28.410Z,21.10
2023-03-05T11:56:36.360Z,20.70
2023-03-05T11:59:41.008Z,20.10
2023-03-05T12:02:45.715Z,19.80
2023-03-05T12:05:53.046Z,18.50
2023-03-05T12:08:59.458Z,18.20
2023-03-05T12:12:13.372Z,16.70
2023-03-05T12:15:47.511Z,16.10
2023-03-05T12:18:59.168Z,15.50
2023-03-05T12:22:04.541Z,15.50
2023-03-05T12:25:28.745Z,14.80
2023-03-05T12:28:58.283Z,14.40
2023-03-05T12:32:02.402Z,14.60
2023-03-05T12:35:06.987Z,14.40
2023-03-05T12:38:31.137Z,14.80
2023-03-05T12:41:37.673Z,14.40
2023-03-05T12:44:42.727Z,14.00
2023-03-05T12:47:47.188Z,13.80
2023-03-05T12:50:53.095Z,14.50
2023-03-05T12:53:57.524Z,15.00
2023-03-05T12:57:03.084Z,14.50
2023-03-05T13:00:13.731Z,14.50
2023-03-05T13:03:20.885Z,14.30
2023-03-05T13:06:28.763Z,15.00
2023-03-05T13:09:36.670Z,14.60
2023-03-05T13:12:41.696Z,14.60
2023-03-05T13:15:51.066Z,15.60
2023-03-05T13:18:56.994Z,15.20
2023-03-05T13:22:04.240Z,14.70
2023-03-05T13:25:20.931Z,15.10
2023-03-05T13:28:25.761Z,15.60
2023-03-05T13:31:31.973Z,15.60
2023-03-05T13:34:47.150Z,15.10
2023-03-05T13:37:52.120Z,14.60
2023-03-05T13:41:27.102Z,14.50
2023-03-05T13:44:32.942Z,15.10
2023-03-05T13:47:38.777Z,15.10
2023-03-05T13:50:42.701Z,15.20
2023-03-05T13:53:48.775Z,16.50
2023-03-05T13:56:57.420Z,17.20
2023-03-05T14:00:05.299Z,18.90
2023-03-05T14:03:23.014Z,20.30
2023-03-05T14:06:29.755Z,21.50
2023-03-05T14:09:46.464Z,22.30
2023-03-05T14:12:53.384Z,23.20
2023-03-05T14:16:08.573Z,24.30
2023-03-05T14:19:35.685Z,25.40
2023-03-05T14:22:42.669Z,26.40
2023-03-05T14:25:47.460Z,27.40
2023-03-05T14:28:56.026Z,27.40
2023-03-05T14:32:03.250Z,27.80
2023-03-05T14:35:19.829Z,28.10
2023-03-05T14:38:28.763Z,28.90
2023-03-05T14:41:45.155Z,29.70
2023-03-05T14:44:53.141Z,29.70
2023-03-05T14:48:00.413Z,29.80
2023-03-05T14:51:10.327Z,30.20
2023-03-05T14:54:22.317Z,31.40
2023-03-05T14:57:32.280Z,31.80
2023-03-05T15:00:36.611Z,31.50
2023-03-05T15:03:42.120Z,31.80
2023-03-05T15:06:51.364Z,33.50
2023-03-05T15:09:56.418Z,35.30
2023-03-05T15:13:01.961Z,36.30
2023-03-05T15:16:08.546Z,37.40
2023-03-05T15:19:15.259Z,37.90
2023-03-05T15:22:21.168Z,37.70
2023-03-05T15:25:29.201Z,38.20
2023-03-05T15:28:35.634Z,38.60
2023-03-05T15:31:43.115Z,39.30
2023-03-05T15:34:49.152Z,39.10
2023-03-05T15:37:55.951Z,39.20
2023-03-05T15:41:02.218Z,38.80
2023-03-05T15:44:07.024Z,39.40
2023-03-05T15:47:12.324Z,40.20
2023-03-05T15:50:16.508Z,40.60
2023-03-05T15:53:23.602Z,40.30
2023-03-05T15:56:28.516Z,40.70
2023-03-05T15:59:36.698Z,41.00
2023-03-05T16:02:41.161Z,41.30
2023-03-05T16:05:46.013Z,41.90
2023-03-05T16:08:53.430Z,42.70
2023-03-05T16:11:58.180Z,43.30
2023-03-05T16:15:03.425Z,44.40
2023-03-05T16:18:12.936Z,44.60
2023-03-05T16:21:16.899Z,45.10
2023-03-05T16:24:26.712Z,45.70
2023-03-05T16:27:32.488Z,46.20
2023-03-05T16:30:38.333Z,46.60
2023-03-05T16:33:42.856Z,47.70
2023-03-05T16:36:53.284Z,47.90
2023-03-05T16:40:01.434Z,48.20
2023-03-05T16:43:07.220Z,48.30
2023-03-05T16:46:13.053Z,48.10
2023-03-05T16:49:18.502Z,47.90
2023-03-05T16:52:23.515Z,47.90
2023-03-05T16:55:31.311Z,48.00
2023-03-05T16:58:36.454Z,48.00
2023-03-05T17:01:41.106Z,48.00
2023-03-05T17:04:46.652Z,48.00
2023-03-05T17:07:51.987Z,48.20
2023-03-05T17:10:59.550Z,48.30
2023-03-05T17:14:11.882Z,48.70
2023-03-05T17:17:16.658Z,48.90
2023-03-05T17:20:22.288Z,49.00
2023-03-05T17:23:30.571Z,49.20
2023-03-05T17:26:37.849Z,49.50
2023-03-05T17:29:44.315Z,49.70
2023-03-05T17:32:49.648Z,49.90
2023-03-05T17:35:56.106Z,50.10
2023-03-05T17:39:00.521Z,50.50
2023-03-05T17:42:07.058Z,50.50
2023-03-05T17:45:12.731Z,50.50
2023-03-05T17:48:18.916Z,50.80
2023-03-05T17:51:23.106Z,50.80
2023-03-05T17:54:28.431Z,50.80
2023-03-05T17:57:34.502Z,51.00
2023-03-05T18:00:38.859Z,51.10
2023-03-05T18:03:45.267Z,51.30
2023-03-05T18:06:52.568Z,51.70
2023-03-05T18:09:56.944Z,51.50
2023-03-05T18:13:04.286Z,51.70
2023-03-05T18:16:09.706Z,51.90
2023-03-05T18:19:15.403Z,52.00
2023-03-05T18:22:19.955Z,51.80
2023-03-05T18:25:31.483Z,52.00
2023-03-05T18:28:37.760Z,52.10
2023-03-05T18:31:48.613Z,52.20
2023-03-05T18:34:53.943Z,52.40
2023-03-05T18:38:00.123Z,52.40
2023-03-05T18:41:05.942Z,53.30
2023-03-05T18:44:14.573Z,52.80
2023-03-05T18:47:21.622Z,53.00
2023-03-05T18:50:28.942Z,53.00
2023-03-05T18:53:34.758Z,53.00
2023-03-05T18:56:39.602Z,53.20
2023-03-05T18:59:45.380Z,53.30
2023-03-05T19:02:51.706Z,53.20
2023-03-05T19:05:58.033Z,53.20
2023-03-05T19:09:09.223Z,53.50
2023-03-05T19:12:14.096Z,53.60
2023-03-05T19:15:21.423Z,53.80
2023-03-05T19:18:30.241Z,54.40
2023-03-05T19:21:35.302Z,54.60
2023-03-05T19:24:40.170Z,54.50
2023-03-05T19:27:45.316Z,55.00
2023-03-05T19:30:52.298Z,55.30
2023-03-05T19:33:57.272Z,55.60
2023-03-05T19:37:01.770Z,55.80
2023-03-05T19:40:07.307Z,56.30
2023-03-05T19:43:12.916Z,56.40
2023-03-05T19:46:18.981Z,56.50
2023-03-05T19:49:24.405Z,56.90
2023-03-05T19:52:29.275Z,57.10
2023-03-05T19:55:33.508Z,57.40
2023-03-05T19:58:43.297Z,57.80
2023-03-05T20:01:50.765Z,58.00
2023-03-05T20:04:58.293Z,58.30
2023-03-05T20:08:04.009Z,58.50
2023-03-05T20:11:09.316Z,58.70
2023-03-05T20:14:15.231Z,59.00
2023-03-05T20:17:21.180Z,59.00
2023-03-05T20:20:26.722Z,58.90
2023-03-05T20:23:32.300Z,59.20
2023-03-05T20:26:38.407Z,59.00
2023-03-05T20:29:46.578Z,59.20
2023-03-05T20:32:54.164Z,59.80
2023-03-05T20:35:59.468Z,59.20
2023-03-05T20:39:04.672Z,59.30
2023-03-05T20:42:09.285Z,59.40
2023-03-05T20:45:15.036Z,59.40
2023-03-05T20:48:22.699Z,59.40
2023-03-05T20:51:29.073Z,59.60
2023-03-05T20:54:34.152Z,59.60
2023-03-05T20:57:39.730Z,60.00
2023-03-05T21:00:47.213Z,60.00
2023-03-05T21:03:54.399Z,60.00
2023-03-05T21:06:59.068Z,59.70
2023-03-05T21:10:03.508Z,60.00
2023-03-05T21:13:07.801Z,59.80
2023-03-05T21:16:15.524Z,59.80
2023-03-05T21:19:21.004Z,59.50
2023-03-05T21:22:29.432Z,59.60
2023-03-05T21:25:34.670Z,59.50
2023-03-05T21:28:40.865Z,59.10
2023-03-05T21:31:45.625Z,59.00
2023-03-05T21:34:50.644Z,59.20
2023-03-05T21:37:55.313Z,58.90
2023-03-05T21:41:00.237Z,59.10
2023-03-05T21:44:06.796Z,59.20
2023-03-05T21:47:11.328Z,59.20
2023-03-05T21:50:17.731Z,59.10
2023-03-05T21:53:21.415Z,59.10
2023-03-05T21:56:25.997Z,59.20
2023-03-05T21:59:29.280Z,59.10
2023-03-05T22:02:32.438Z,59.00
2023-03-05T22:05:37.005Z,59.60
2023-03-05T22:08:40.343Z,58.90
2023-03-05T22:11:44.033Z,58.80
2023-03-05T22:14:47.225Z,59.10
2023-03-05T22:17:50.798Z,58.70
2023-03-05T22:20:56.077Z,58.70
2023-03-05T22:23:59.980Z,58.70
2023-03-05T22:27:03.148Z,58.70
2023-03-05T22:30:07.345Z,58.90
2023-03-05T22:33:13.442Z,58.90
2023-03-05T22:36:18.431Z,58.50
2023-03-05T22:39:21.631Z,58.90
2023-03-05T22:42:25.077Z,58.40
2023-03-05T22:45:29.893Z,58.60
2023-03-05T22:48:33.090Z,58.70
2023-03-05T22:51:37.960Z,58.30
2023-03-05T22:54:41.176Z,58.30
2023-03-05T22:57:44.559Z,58.20
2023-03-05T23:00:48.730Z,57.80
2023-03-05T23:03:57.362Z,57.60
2023-03-05T23:07:02.010Z,56.80
2023-03-05T23:10:08.898Z,56.50
2023-03-05T23:13:12.189Z,56.40
2023-03-05T23:16:15.359Z,56.50
2023-03-05T23:19:18.594Z,56.40
2023-03-05T23:22:23.458Z,56.50
2023-03-05T23:25:28.900Z,56.30
2023-03-05T23:28:32.351Z,56.40
2023-03-05T23:31:35.581Z,56.40
2023-03-05T23:34:38.768Z,56.30
2023-03-05T23:37:43.361Z,56.20
2023-03-05T23:40:48.701Z,56.20
2023-03-05T23:43:51.900Z,56.00
2023-03-05T23:46:55.055Z,56.20
2023-03-05T23:49:58.218Z,56.10
2023-03-05T23:53:04.870Z,56.20
2023-03-05T23:56:12.142Z,56.30
2023-03-05T23:59:15.345Z,56.20
